createdAt,value
2018-03-22T00:00:56.624Z,28.50
2018-03-22T00:03:24.083Z,32.10
2018-03-22T00:05:51.540Z,32.33
2018-03-22T00:08:19.010Z,25.90
2018-03-22T00:10:46.444Z,23.33
2018-03-22T00:13:13.904Z,27.80
2018-03-22T00:15:41.354Z,21.30
2018-03-22T00:18:08.824Z,24.10
2018-03-22T00:20:36.264Z,21.90
2018-03-22T00:23:03.732Z,21.33
2018-03-22T00:25:31.200Z,19.53
2018-03-22T00:27:59.516Z,21.43
2018-03-22T00:30:28.190Z,23.37
2018-03-22T00:32:55.619Z,17.33
2018-03-22T00:35:23.073Z,19.63
2018-03-22T00:37:51.128Z,20.37
2018-03-22T00:40:18.592Z,21.90
2018-03-22T00:42:46.044Z,21.70
2018-03-22T00:45:13.467Z,24.43
2018-03-22T00:47:41.052Z,23.13
2018-03-22T00:50:08.528Z,20.83
2018-03-22T00:52:36.084Z,23.00
2018-03-22T00:55:03.666Z,22.90
2018-03-22T00:57:31.089Z,23.43
2018-03-22T00:59:58.560Z,22.33
2018-03-22T01:02:26.121Z,25.03
2018-03-22T01:04:53.551Z,24.43
2018-03-22T01:07:21.010Z,21.70
2018-03-22T01:09:48.441Z,24.47
2018-03-22T01:12:16.713Z,22.90
2018-03-22T01:14:45.182Z,25.73
2018-03-22T01:17:12.708Z,25.27
2018-03-22T01:19:41.334Z,24.23
2018-03-22T01:22:09.663Z,23.47
2018-03-22T01:24:37.942Z,22.30
2018-03-22T01:27:05.475Z,28.97
2018-03-22T01:29:32.908Z,26.70
2018-03-22T01:32:01.128Z,27.97
2018-03-22T01:34:28.584Z,29.30
2018-03-22T01:36:56.020Z,23.30
2018-03-22T01:39:23.518Z,24.10
2018-03-22T01:41:51.383Z,28.97
2018-03-22T01:44:18.813Z,21.87
2018-03-22T01:46:46.256Z,24.93
2018-03-22T01:49:13.697Z,21.50
2018-03-22T01:51:41.123Z,24.47
2018-03-22T01:54:08.560Z,25.30
2018-03-22T01:56:36.729Z,22.70
2018-03-22T01:59:04.191Z,20.50
2018-03-22T02:01:31.619Z,28.77
2018-03-22T02:03:59.105Z,24.60
2018-03-22T02:06:26.656Z,24.30
2018-03-22T02:08:54.112Z,25.97
2018-03-22T02:11:21.552Z,23.70
2018-03-22T02:13:48.999Z,24.70
2018-03-22T02:16:16.454Z,23.10
2018-03-22T02:18:43.883Z,27.97
2018-03-22T02:21:12.100Z,23.13
2018-03-22T02:23:39.544Z,25.27
2018-03-22T02:26:06.987Z,26.00
2018-03-22T02:28:34.500Z,34.80
2018-03-22T02:31:01.940Z,27.30
2018-03-22T02:33:29.409Z,24.67
2018-03-22T02:35:56.835Z,26.10
2018-03-22T02:38:24.320Z,25.17
2018-03-22T02:40:51.884Z,23.83
2018-03-22T02:43:20.222Z,26.30
2018-03-22T02:45:47.710Z,27.03
2018-03-22T02:48:15.172Z,32.70
2018-03-22T02:50:42.648Z,23.93
2018-03-22T02:53:10.863Z,23.10
2018-03-22T02:55:38.304Z,31.30
2018-03-22T02:58:06.513Z,27.80
2018-03-22T03:00:33.967Z,21.93
2018-03-22T03:03:01.395Z,20.20
2018-03-22T03:05:28.902Z,24.87
2018-03-22T03:07:56.851Z,22.23
2018-03-22T03:10:25.011Z,26.40
2018-03-22T03:12:52.948Z,23.33
2018-03-22T03:15:21.150Z,26.57
2018-03-22T03:17:48.836Z,23.60
2018-03-22T03:20:16.328Z,27.53
2018-03-22T03:22:43.752Z,23.27
2018-03-22T03:25:11.214Z,26.03
2018-03-22T03:27:38.674Z,27.93
2018-03-22T03:30:06.128Z,26.43
2018-03-22T03:32:33.559Z,29.17
2018-03-22T03:35:01.007Z,29.10
2018-03-22T03:37:28.436Z,27.30
2018-03-22T03:39:56.672Z,34.43
2018-03-22T03:42:24.128Z,27.47
2018-03-22T03:44:51.576Z,27.20
2018-03-22T03:47:19.019Z,29.50
2018-03-22T03:49:46.459Z,44.93
2018-03-22T03:52:13.958Z,31.60
2018-03-22T03:54:41.399Z,33.60
2018-03-22T03:57:09.311Z,32.80
2018-03-22T03:59:36.838Z,36.43
2018-03-22T04:02:04.363Z,36.13
2018-03-22T04:04:32.208Z,32.90
2018-03-22T04:07:00.453Z,32.97
2018-03-22T04:09:27.960Z,36.00
2018-03-22T04:11:56.218Z,28.53
2018-03-22T04:14:23.684Z,30.43
2018-03-22T04:16:51.900Z,29.80
2018-03-22T04:19:19.357Z,29.40
2018-03-22T04:21:46.805Z,33.40
2018-03-22T04:24:14.252Z,33.00
2018-03-22T04:26:41.688Z,36.60
2018-03-22T04:29:09.199Z,28.53
2018-03-22T04:31:36.641Z,31.50
2018-03-22T04:34:04.067Z,30.37
2018-03-22T04:36:31.510Z,33.93
2018-03-22T04:38:59.735Z,34.27
2018-03-22T04:41:27.179Z,30.07
2018-03-22T04:43:54.608Z,39.90
2018-03-22T04:46:22.127Z,30.43
2018-03-22T04:48:49.568Z,31.93
2018-03-22T04:51:17.024Z,28.83
2018-03-22T04:53:44.460Z,33.03
2018-03-22T04:56:11.904Z,29.23
2018-03-22T04:58:39.342Z,31.83
2018-03-22T05:01:06.773Z,26.20
2018-03-22T05:03:34.225Z,29.47
2018-03-22T05:06:01.670Z,32.63
2018-03-22T05:08:29.154Z,31.40
2018-03-22T05:10:56.614Z,33.30
2018-03-22T05:13:24.045Z,29.40
2018-03-22T05:15:52.241Z,29.50
2018-03-22T05:18:20.478Z,27.93
2018-03-22T05:20:47.910Z,25.00
2018-03-22T05:23:15.388Z,32.77
2018-03-22T05:25:42.861Z,24.07
2018-03-22T05:28:10.408Z,25.27
2018-03-22T05:30:37.855Z,26.27
2018-03-22T05:33:05.320Z,23.27
2018-03-22T05:35:32.776Z,25.40
2018-03-22T05:38:00.212Z,29.00
2018-03-22T05:40:27.704Z,26.73
2018-03-22T05:42:55.144Z,35.07
2018-03-22T05:45:22.577Z,24.30
2018-03-22T05:47:50.058Z,29.43
2018-03-22T05:50:17.504Z,32.73
2018-03-22T05:52:45.794Z,33.03
2018-03-22T05:55:13.241Z,31.63
2018-03-22T05:57:42.345Z,33.40
2018-03-22T06:00:09.809Z,32.53
2018-03-22T06:02:37.240Z,33.07
2018-03-22T06:05:04.725Z,27.10
2018-03-22T06:07:32.179Z,28.33
2018-03-22T06:09:59.744Z,27.67
2018-03-22T06:12:27.177Z,28.93
2018-03-22T06:14:54.625Z,30.73
2018-03-22T06:17:22.063Z,27.67
2018-03-22T06:19:49.488Z,27.97
2018-03-22T06:22:17.732Z,27.63
2018-03-22T06:24:45.218Z,29.13
2018-03-22T06:27:12.658Z,23.73
2018-03-22T06:29:40.115Z,36.00
2018-03-22T06:32:07.580Z,20.23
2018-03-22T06:34:35.116Z,33.00
2018-03-22T06:37:02.548Z,25.87
2018-03-22T06:39:30.771Z,24.97
2018-03-22T06:41:59.164Z,25.47
2018-03-22T06:44:26.692Z,27.20
2018-03-22T06:46:54.160Z,24.60
2018-03-22T06:49:21.709Z,23.97
2018-03-22T06:51:50.752Z,30.50
2018-03-22T06:54:18.944Z,27.40
2018-03-22T06:56:47.477Z,28.33
2018-03-22T06:59:15.116Z,21.53
2018-03-22T07:01:42.567Z,22.67
2018-03-22T07:04:10.047Z,21.67
2018-03-22T07:06:37.479Z,23.30
2018-03-22T07:09:05.972Z,25.37
2018-03-22T07:11:33.531Z,18.00
2018-03-22T07:14:00.983Z,19.93
2018-03-22T07:16:28.539Z,22.60
2018-03-22T07:18:55.973Z,34.43
2018-03-22T07:21:23.456Z,24.37
2018-03-22T07:23:50.932Z,23.03
2018-03-22T07:26:18.360Z,20.97
2018-03-22T07:28:45.811Z,22.13
2018-03-22T07:31:13.250Z,21.57
2018-03-22T07:33:41.229Z,18.77
2018-03-22T07:36:08.708Z,27.03
2018-03-22T07:38:36.172Z,20.03
2018-03-22T07:41:03.603Z,22.60
2018-03-22T07:43:36.704Z,21.70
2018-03-22T07:46:04.152Z,22.20
2018-03-22T07:48:31.603Z,19.57
2018-03-22T07:50:59.045Z,21.43
2018-03-22T07:53:26.483Z,21.47
2018-03-22T07:55:54.717Z,20.53
2018-03-22T07:58:22.167Z,22.00
2018-03-22T08:00:49.626Z,24.90
2018-03-22T08:03:18.001Z,21.93
2018-03-22T08:05:45.468Z,17.20
2018-03-22T08:08:12.900Z,23.50
2018-03-22T08:10:40.484Z,18.70
2018-03-22T08:13:07.908Z,20.10
2018-03-22T08:15:35.352Z,18.37
2018-03-22T08:18:02.798Z,18.27
2018-03-22T08:20:31.017Z,13.63
2018-03-22T08:22:58.489Z,17.40
2018-03-22T08:25:25.965Z,18.87
2018-03-22T08:27:53.614Z,15.27
2018-03-22T08:30:21.047Z,21.33
2018-03-22T08:32:48.596Z,14.80
2018-03-22T08:35:16.071Z,13.83
2018-03-22T08:37:43.504Z,14.33
2018-03-22T08:40:10.947Z,16.50
2018-03-22T08:42:38.453Z,17.17
2018-03-22T08:45:05.908Z,16.00
2018-03-22T08:47:33.355Z,13.70
2018-03-22T08:50:00.811Z,9.67
2018-03-22T08:52:28.247Z,13.23
2018-03-22T08:54:55.687Z,16.40
2018-03-22T08:57:23.135Z,20.50
2018-03-22T08:59:51.355Z,15.03
2018-03-22T09:02:18.815Z,17.97
2018-03-22T09:04:46.272Z,18.00
2018-03-22T09:07:13.713Z,17.90
2018-03-22T09:09:41.174Z,14.63
2018-03-22T09:12:08.607Z,17.93
2018-03-22T09:14:36.055Z,19.17
2018-03-22T09:17:04.272Z,19.47
2018-03-22T09:19:31.709Z,17.70
2018-03-22T09:21:59.140Z,19.63
2018-03-22T09:24:26.648Z,15.10
2018-03-22T09:26:59.700Z,18.77
2018-03-22T09:29:27.144Z,21.17
2018-03-22T09:31:55.359Z,15.23
2018-03-22T09:34:22.919Z,19.53
2018-03-22T09:36:50.353Z,14.50
2018-03-22T09:39:17.840Z,16.30
2018-03-22T09:41:45.279Z,17.07
2018-03-22T09:44:12.762Z,15.37
2018-03-22T09:46:40.217Z,14.23
2018-03-22T09:49:07.664Z,22.80
2018-03-22T09:51:35.110Z,14.70
2018-03-22T09:54:02.535Z,19.37
2018-03-22T09:56:29.964Z,14.10
2018-03-22T09:58:57.399Z,12.97
2018-03-22T10:01:24.843Z,19.80
2018-03-22T10:03:52.285Z,14.77
2018-03-22T10:06:19.756Z,13.73
2018-03-22T10:08:47.217Z,19.73
2018-03-22T10:11:14.671Z,16.50
2018-03-22T10:13:42.143Z,14.80
2018-03-22T10:16:10.004Z,15.03
2018-03-22T10:18:37.460Z,12.80
2018-03-22T10:21:04.895Z,13.47
2018-03-22T10:23:32.365Z,15.63
2018-03-22T10:25:59.911Z,13.93
2018-03-22T10:28:27.658Z,13.43
2018-03-22T10:30:55.088Z,16.07
2018-03-22T10:33:23.323Z,16.60
2018-03-22T10:35:50.785Z,12.43
2018-03-22T10:38:18.220Z,15.13
2018-03-22T10:40:45.652Z,13.80
2018-03-22T10:43:13.147Z,11.10
2018-03-22T10:45:40.611Z,12.07
2018-03-22T10:48:08.063Z,12.10
2018-03-22T10:50:35.499Z,15.43
2018-03-22T10:53:02.936Z,14.73
2018-03-22T10:55:30.435Z,15.53
2018-03-22T10:57:57.867Z,12.70
2018-03-22T11:00:30.948Z,12.60
2018-03-22T11:03:13.256Z,15.10
2018-03-22T11:05:40.717Z,9.90
2018-03-22T11:08:08.195Z,12.20
2018-03-22T11:10:35.639Z,11.87
2018-03-22T11:13:03.075Z,11.70
2018-03-22T11:15:30.524Z,14.00
2018-03-22T11:17:57.957Z,14.60
2018-03-22T11:20:25.495Z,11.03
2018-03-22T11:22:53.046Z,16.70
2018-03-22T11:25:20.485Z,19.33
2018-03-22T11:27:47.976Z,12.30
2018-03-22T11:30:15.409Z,10.70
2018-03-22T11:32:42.867Z,11.50
2018-03-22T11:35:10.324Z,13.37
2018-03-22T11:37:37.777Z,13.10
2018-03-22T11:40:05.263Z,9.57
2018-03-22T11:42:32.837Z,15.97
2018-03-22T11:45:00.258Z,10.20
2018-03-22T11:47:28.256Z,12.30
2018-03-22T11:49:55.793Z,12.47
2018-03-22T11:52:23.239Z,12.73
2018-03-22T11:54:50.812Z,17.73
2018-03-22T11:57:18.286Z,13.73
2018-03-22T11:59:45.721Z,17.37
2018-03-22T12:02:13.172Z,17.40
2018-03-22T12:04:40.640Z,11.90
2018-03-22T12:07:08.079Z,13.60
2018-03-22T12:09:35.545Z,17.30
2018-03-22T12:12:02.995Z,14.67
2018-03-22T12:14:30.441Z,19.40
2018-03-22T12:16:57.923Z,16.57
2018-03-22T12:19:25.476Z,13.27
2018-03-22T12:21:53.286Z,16.97
2018-03-22T12:24:21.516Z,15.97
2018-03-22T12:26:48.957Z,18.80
2018-03-22T12:29:16.392Z,18.20
2018-03-22T12:31:43.838Z,23.03
2018-03-22T12:34:12.056Z,17.57
2018-03-22T12:36:39.615Z,16.77
2018-03-22T12:39:07.050Z,17.00
2018-03-22T12:41:34.532Z,17.23
2018-03-22T12:44:01.980Z,18.40
2018-03-22T12:46:29.448Z,19.70
2018-03-22T12:48:56.904Z,22.00
2018-03-22T12:51:24.342Z,17.67
2018-03-22T12:53:51.780Z,19.13
2018-03-22T12:56:19.313Z,21.97
2018-03-22T12:58:46.835Z,19.90
2018-03-22T13:01:14.272Z,21.17
2018-03-22T13:03:42.189Z,20.47
2018-03-22T13:06:09.711Z,22.77
2018-03-22T13:08:37.148Z,21.67
2018-03-22T13:11:04.628Z,23.10
2018-03-22T13:13:32.092Z,21.20
2018-03-22T13:15:59.519Z,23.40
2018-03-22T13:18:27.000Z,21.13
2018-03-22T13:20:54.456Z,22.00
2018-03-22T13:23:21.917Z,25.70
2018-03-22T13:25:49.373Z,21.13
2018-03-22T13:28:16.824Z,24.03
2018-03-22T13:30:44.295Z,22.67
2018-03-22T13:33:11.763Z,24.00
2018-03-22T13:35:39.299Z,22.20
2018-03-22T13:38:06.736Z,22.53
2018-03-22T13:40:34.193Z,23.27
2018-03-22T13:43:01.628Z,22.27
2018-03-22T13:45:29.067Z,20.40
2018-03-22T13:47:57.289Z,21.63
2018-03-22T13:50:24.759Z,20.23
2018-03-22T13:52:52.224Z,23.03
2018-03-22T13:55:19.660Z,20.73
2018-03-22T13:57:47.099Z,20.10
2018-03-22T14:00:14.583Z,21.27
2018-03-22T14:02:42.002Z,22.50
2018-03-22T14:05:09.431Z,23.20
2018-03-22T14:07:37.671Z,19.70
2018-03-22T14:10:05.132Z,22.53
2018-03-22T14:12:33.859Z,21.07
2018-03-22T14:15:01.873Z,18.30
2018-03-22T14:17:29.344Z,21.17
2018-03-22T14:19:57.928Z,22.87
2018-03-22T14:22:26.113Z,23.97
2018-03-22T14:24:53.532Z,18.43
2018-03-22T14:27:22.529Z,18.83
2018-03-22T14:29:50.065Z,25.20
2018-03-22T14:32:17.460Z,24.43
2018-03-22T14:34:44.902Z,16.40
2018-03-22T14:37:12.339Z,19.13
2018-03-22T14:39:39.759Z,17.30
2018-03-22T14:42:07.295Z,22.23
2018-03-22T14:44:34.747Z,15.90
2018-03-22T14:47:02.204Z,18.10
2018-03-22T14:49:29.672Z,15.80
2018-03-22T14:51:57.124Z,15.37
2018-03-22T14:54:24.572Z,20.33
2018-03-22T14:56:52.055Z,16.00
2018-03-22T14:59:19.503Z,16.90
2018-03-22T15:01:46.969Z,18.13
2018-03-22T15:04:14.415Z,19.03
2018-03-22T15:06:43.723Z,20.07
2018-03-22T15:09:11.203Z,19.50
2018-03-22T15:11:39.445Z,18.83
2018-03-22T15:14:06.912Z,17.03
2018-03-22T15:16:34.489Z,15.03
2018-03-22T15:19:01.887Z,15.77
2018-03-22T15:21:29.775Z,15.13
2018-03-22T15:23:57.221Z,16.23
2018-03-22T15:26:24.707Z,16.70
2018-03-22T15:28:52.177Z,14.43
2018-03-22T15:31:19.596Z,14.77
2018-03-22T15:33:47.176Z,17.80
2018-03-22T15:36:14.732Z,17.17
2018-03-22T15:38:42.180Z,15.90
2018-03-22T15:41:09.640Z,13.60
2018-03-22T15:43:37.096Z,11.83
2018-03-22T15:46:04.527Z,13.17
2018-03-22T15:48:32.016Z,14.27
2018-03-22T15:50:59.444Z,13.83
2018-03-22T15:53:26.888Z,12.03
2018-03-22T15:55:54.319Z,10.60
2018-03-22T15:58:22.670Z,12.17
2018-03-22T16:00:50.116Z,11.60
2018-03-22T16:03:17.547Z,16.27
2018-03-22T16:05:44.997Z,14.10
2018-03-22T16:08:12.480Z,13.03
2018-03-22T16:10:39.944Z,10.00
2018-03-22T16:13:07.384Z,13.00
2018-03-22T16:15:34.860Z,10.20
2018-03-22T16:18:02.339Z,9.13
2018-03-22T16:20:29.896Z,11.97
2018-03-22T16:22:58.172Z,14.73
2018-03-22T16:25:25.632Z,12.83
2018-03-22T16:27:53.185Z,9.33
2018-03-22T16:30:20.634Z,12.67
2018-03-22T16:32:48.092Z,11.00
2018-03-22T16:35:15.559Z,10.73
2018-03-22T16:37:43.020Z,13.70
2018-03-22T16:40:10.480Z,16.30
2018-03-22T16:42:38.040Z,10.67
2018-03-22T16:45:05.508Z,12.47
2018-03-22T16:47:33.735Z,14.60
2018-03-22T16:50:01.843Z,11.70
2018-03-22T16:52:29.304Z,11.40
2018-03-22T16:54:57.536Z,11.27
2018-03-22T16:57:24.983Z,10.97
2018-03-22T16:59:52.484Z,12.20
2018-03-22T17:02:19.956Z,13.23
2018-03-22T17:04:48.175Z,13.17
2018-03-22T17:07:15.659Z,12.33
2018-03-22T17:09:43.119Z,13.73
2018-03-22T17:12:10.571Z,9.97
2018-03-22T17:14:38.072Z,10.50
2018-03-22T17:17:06.286Z,29.07
2018-03-22T19:03:01.597Z,11.70
2018-03-22T19:05:29.053Z,12.30
2018-03-22T19:07:56.486Z,13.93
2018-03-22T19:10:23.908Z,12.37
2018-03-22T19:12:52.125Z,13.03
2018-03-22T19:15:19.560Z,13.83
2018-03-22T19:17:46.992Z,18.20
2018-03-22T19:20:15.199Z,14.40
2018-03-22T19:22:42.669Z,15.77
2018-03-22T19:25:10.070Z,16.03
2018-03-22T19:27:38.254Z,17.07
2018-03-22T19:30:05.681Z,19.07
2018-03-22T19:32:33.113Z,18.10
2018-03-22T19:35:00.724Z,17.60
2018-03-22T19:37:29.564Z,16.67
2018-03-22T19:39:57.032Z,21.50
2018-03-22T19:42:24.464Z,17.13
2018-03-22T19:44:52.580Z,16.50
2018-03-22T19:47:20.947Z,15.47
2018-03-22T19:49:48.407Z,16.50
2018-03-22T19:52:15.859Z,15.80
2018-03-22T19:54:43.280Z,15.77
2018-03-22T19:57:10.716Z,19.30
2018-03-22T19:59:39.032Z,13.60
2018-03-22T20:02:06.493Z,16.30
2018-03-22T20:04:33.930Z,18.57
2018-03-22T20:07:01.359Z,16.47
2018-03-22T20:09:28.808Z,18.80
2018-03-22T20:11:57.012Z,20.23
2018-03-22T20:14:24.451Z,18.50
2018-03-22T20:16:52.669Z,16.40
2018-03-22T20:19:20.128Z,17.53
2018-03-22T20:21:47.674Z,18.07
2018-03-22T20:24:15.123Z,15.57
2018-03-22T20:26:42.552Z,16.27
2018-03-22T20:29:10.773Z,18.57
2018-03-22T20:31:38.212Z,28.00
2018-03-22T20:34:05.656Z,45.00
2018-03-22T20:36:33.128Z,19.67
2018-03-22T20:39:00.584Z,19.50
2018-03-22T20:41:28.138Z,17.47
2018-03-22T20:43:55.568Z,16.10
2018-03-22T20:46:23.776Z,16.53
2018-03-22T20:48:51.249Z,13.97
2018-03-22T20:51:18.720Z,16.33
2018-03-22T20:53:46.165Z,18.80
2018-03-22T20:56:18.172Z,15.30
2018-03-22T20:58:46.409Z,16.80
2018-03-22T21:01:14.168Z,31.30
2018-03-22T21:03:41.603Z,24.63
2018-03-22T21:06:09.043Z,19.33
2018-03-22T21:08:36.515Z,15.80
2018-03-22T21:11:03.995Z,14.60
2018-03-22T21:13:31.445Z,15.00
2018-03-22T21:16:02.328Z,15.93
2018-03-22T21:18:29.868Z,16.00
2018-03-22T21:20:57.341Z,15.60
2018-03-22T21:23:25.586Z,15.70
2018-03-22T21:25:54.448Z,19.77
2018-03-22T21:28:21.947Z,22.37
2018-03-22T21:30:49.376Z,24.70
2018-03-22T21:33:16.971Z,22.00
2018-03-22T21:35:44.424Z,13.43
2018-03-22T21:38:11.868Z,25.63
2018-03-22T21:40:39.292Z,14.00
2018-03-22T21:43:08.459Z,16.30
2018-03-22T21:45:36.687Z,16.93
2018-03-22T21:48:04.128Z,18.43
2018-03-22T21:50:44.497Z,14.73
2018-03-22T21:53:11.960Z,14.17
2018-03-22T21:55:39.401Z,16.20
2018-03-22T21:58:06.885Z,16.07
2018-03-22T22:00:34.336Z,12.57
2018-03-22T22:03:01.788Z,16.97
2018-03-22T22:05:29.326Z,14.87
2018-03-22T22:07:56.764Z,17.00
2018-03-22T22:10:24.946Z,17.50
2018-03-22T22:12:52.444Z,15.17
2018-03-22T22:15:20.894Z,14.77
2018-03-22T22:17:48.328Z,13.80
2018-03-22T22:20:16.614Z,11.80
2018-03-22T22:22:44.186Z,16.00
2018-03-22T22:25:11.682Z,12.43
2018-03-22T22:27:40.006Z,18.50
2018-03-22T22:30:08.264Z,16.90
2018-03-22T22:32:36.527Z,18.60
2018-03-22T22:35:04.000Z,14.90
2018-03-22T22:37:31.451Z,14.50
2018-03-22T22:39:59.654Z,14.17
2018-03-22T22:42:27.091Z,18.10
2018-03-22T22:44:55.319Z,13.97
2018-03-22T22:47:22.774Z,14.60
2018-03-22T22:49:50.203Z,13.50
2018-03-22T22:52:17.664Z,13.70
2018-03-22T22:54:45.223Z,13.43
2018-03-22T22:57:12.708Z,16.30
2018-03-22T22:59:40.160Z,14.20
2018-03-22T23:02:07.593Z,15.27
2018-03-22T23:04:35.046Z,16.93
2018-03-22T23:07:02.529Z,15.90
2018-03-22T23:09:29.971Z,15.07
2018-03-22T23:11:57.407Z,13.77
2018-03-22T23:14:24.901Z,12.10
2018-03-22T23:16:52.353Z,17.10
2018-03-22T23:19:19.783Z,15.80
2018-03-22T23:21:47.228Z,16.30
2018-03-22T23:24:14.666Z,14.17
2018-03-22T23:26:42.916Z,13.50
2018-03-22T23:29:10.467Z,16.07
2018-03-22T23:31:37.903Z,13.03
2018-03-22T23:34:05.371Z,15.50
2018-03-22T23:36:32.820Z,18.33
2018-03-22T23:39:00.285Z,16.60
2018-03-22T23:41:27.724Z,17.47
2018-03-22T23:43:55.161Z,16.13
2018-03-22T23:46:23.366Z,20.73
2018-03-22T23:48:50.848Z,20.17
2018-03-22T23:51:18.303Z,19.60
2018-03-22T23:53:45.741Z,19.80
2018-03-22T23:56:13.181Z,20.83
2018-03-22T23:58:40.638Z,21.43
